Portada
METAR-TAF:

METAR-TAF

Aeroports :

Aeroport de Bilbao

Bilbao, Espanya

latitud: 43-18N, longitud: 002-56W, altitud: 42 m

Observació

L'informe es va fer fa 22 minuts, a les 18:00 UTC
Vent 3 kt del Oest/Nord-Oest, variant entre Oest i Nord/Nord-Oest
Temperatura 17°C
Humitat 94%
Pressió 1021 hPa
Visibilitat: 8000 m
Escasses núvols a una alçada de 1000 ft
Núvols disperses a una alçada de 1800 ft
Cel ennuvolat a una alçada de 2300 ft

METAR: LEBB 191800Z 30003KT 270V330 8000 FEW010 SCT018 BKN023 17/16 Q1021 NOSIG

Hora: 20:22 (18:22 UTC)

Pronòstic

L'informe es va fer fa 1 hora i 22 minuts, a les 17:00 UTC
Pronòstic vàlid del 19 a les 18 UTC al 20 a les 18 UTC
Vent 7 kt del Nord/Nord-Oest
Visibilitat 10 km o més
Núvols disperses a una alçada de 1500 ft
Probabilitat 40% :
Temporalment
l' 19 a les 21 UTC al 20 a les 08 UTC
Visibilitat: 3000 m
Cel ennuvolat a una alçada de 1000 ft
boirina

TAF: LEBB 191700Z 1918/2018 33007KT 9999 SCT015 TX23/2014Z TN15/2006Z PROB40 TEMPO 1921/2008 3000 BR BKN010

Observacions i pronòstics meteorològics de més de 4000 aeroports (METAR i TAF).

Les estacions disponibles són els punts grocs i vermells al mapa.

Posi el ratolí al punt desitjat per veure el nom de l'estació.

Feu clic per veure les observacions i els pronòstics meteorològics.

Per canviar el mapa: feu clic els botons verds amb una creu de color negre per apropar; al botó verd amb un guió per allunyar la imatge; o en les fletxes verdes per a mapes adjacents.


METAR-TAF: